sensor_id;sensor_type;location;lat;lon;timestamp;temperature;humidity
19058;DHT22;9662;53.612;9.914;2022-09-27T00:01:01;13.20;99.90
19058;DHT22;9662;53.612;9.914;2022-09-27T00:03:28;12.80;99.90
19058;DHT22;9662;53.612;9.914;2022-09-27T00:06:03;13.00;99.90
19058;DHT22;9662;53.612;9.914;2022-09-27T00:08:30;12.80;99.90
19058;DHT22;9662;53.612;9.914;2022-09-27T00:10:59;13.10;99.90
19058;DHT22;9662;53.612;9.914;2022-09-27T00:13:26;13.00;99.90
19058;DHT22;9662;53.612;9.914;2022-09-27T00:15:59;12.70;99.90
19058;DHT22;9662;53.612;9.914;2022-09-27T00:18:26;13.00;99.90
19058;DHT22;9662;53.612;9.914;2022-09-27T00:20:53;12.90;99.90
19058;DHT22;9662;53.612;9.914;2022-09-27T00:23:20;13.00;99.90
19058;DHT22;9662;53.612;9.914;2022-09-27T00:25:56;12.90;99.90
19058;DHT22;9662;53.612;9.914;2022-09-27T00:28:23;13.00;99.90
19058;DHT22;9662;53.612;9.914;2022-09-27T00:30:50;13.00;99.90
19058;DHT22;9662;53.612;9.914;2022-09-27T00:33:19;13.00;99.90
19058;DHT22;9662;53.612;9.914;2022-09-27T00:35:46;12.90;99.90
19058;DHT22;9662;53.612;9.914;2022-09-27T00:38:13;13.00;99.90
19058;DHT22;9662;53.612;9.914;2022-09-27T00:40:40;12.90;99.90
19058;DHT22;9662;53.612;9.914;2022-09-27T00:43:14;13.00;99.90
19058;DHT22;9662;53.612;9.914;2022-09-27T00:45:42;12.50;99.90
19058;DHT22;9662;53.612;9.914;2022-09-27T00:48:13;12.70;99.90
19058;DHT22;9662;53.612;9.914;2022-09-27T00:50:44;12.60;99.90
19058;DHT22;9662;53.612;9.914;2022-09-27T00:53:15;12.60;99.90
19058;DHT22;9662;53.612;9.914;2022-09-27T00:55:45;12.60;99.90
19058;DHT22;9662;53.612;9.914;2022-09-27T00:58:18;12.80;99.90
19058;DHT22;9662;53.612;9.914;2022-09-27T01:00:51;12.70;99.90
19058;DHT22;9662;53.612;9.914;2022-09-27T01:03:25;13.00;99.90
19058;DHT22;9662;53.612;9.914;2022-09-27T01:05:57;13.00;99.90
19058;DHT22;9662;53.612;9.914;2022-09-27T01:08:25;13.00;99.90
19058;DHT22;9662;53.612;9.914;2022-09-27T01:11:03;12.70;99.90
19058;DHT22;9662;53.612;9.914;2022-09-27T01:13:36;12.90;99.90
19058;DHT22;9662;53.612;9.914;2022-09-27T01:16:14;13.10;99.90
19058;DHT22;9662;53.612;9.914;2022-09-27T01:18:54;12.70;99.90
19058;DHT22;9662;53.612;9.914;2022-09-27T01:21:42;12.90;99.90
19058;DHT22;9662;53.612;9.914;2022-09-27T01:24:23;13.00;99.90
19058;DHT22;9662;53.612;9.914;2022-09-27T01:27:16;12.90;99.90
19058;DHT22;9662;53.612;9.914;2022-09-27T01:29:57;12.90;99.90
19058;DHT22;9662;53.612;9.914;2022-09-27T01:32:33;13.00;99.90
19058;DHT22;9662;53.612;9.914;2022-09-27T01:35:04;12.80;99.90
19058;DHT22;9662;53.612;9.914;2022-09-27T01:37:37;12.80;99.90
19058;DHT22;9662;53.612;9.914;2022-09-27T01:40:10;12.70;99.90
19058;DHT22;9662;53.612;9.914;2022-09-27T01:42:46;12.70;99.90
19058;DHT22;9662;53.612;9.914;2022-09-27T01:45:20;12.50;99.90
19058;DHT22;9662;53.612;9.914;2022-09-27T01:47:51;12.80;99.90
19058;DHT22;9662;53.612;9.914;2022-09-27T01:50:23;12.90;99.90
19058;DHT22;9662;53.612;9.914;2022-09-27T01:52:56;12.80;99.90
19058;DHT22;9662;53.612;9.914;2022-09-27T01:55:29;12.90;99.90
19058;DHT22;9662;53.612;9.914;2022-09-27T01:58:00;13.00;99.90
19058;DHT22;9662;53.612;9.914;2022-09-27T02:00:29;12.80;99.90
19058;DHT22;9662;53.612;9.914;2022-09-27T02:03:00;13.00;99.90
19058;DHT22;9662;53.612;9.914;2022-09-27T02:05:35;13.00;99.90
19058;DHT22;9662;53.612;9.914;2022-09-27T02:08:05;12.90;99.90
19058;DHT22;9662;53.612;9.914;2022-09-27T02:10:38;13.00;99.90
19058;DHT22;9662;53.612;9.914;2022-09-27T02:13:14;13.00;99.90
19058;DHT22;9662;53.612;9.914;2022-09-27T02:15:48;13.10;99.90
19058;DHT22;9662;53.612;9.914;2022-09-27T02:18:23;13.00;99.90
19058;DHT22;9662;53.612;9.914;2022-09-27T02:20:56;12.80;99.90
19058;DHT22;9662;53.612;9.914;2022-09-27T02:23:28;12.90;99.90
19058;DHT22;9662;53.612;9.914;2022-09-27T02:26:01;13.00;99.90
19058;DHT22;9662;53.612;9.914;2022-09-27T02:28:33;12.90;99.90
19058;DHT22;9662;53.612;9.914;2022-09-27T02:31:01;12.80;99.90
19058;DHT22;9662;53.612;9.914;2022-09-27T02:33:33;13.00;99.90
19058;DHT22;9662;53.612;9.914;2022-09-27T02:36:01;13.00;99.90
19058;DHT22;9662;53.612;9.914;2022-09-27T02:38:28;13.10;99.90
19058;DHT22;9662;53.612;9.914;2022-09-27T02:40:55;12.90;99.90
19058;DHT22;9662;53.612;9.914;2022-09-27T02:43:24;13.00;99.90
19058;DHT22;9662;53.612;9.914;2022-09-27T02:46:00;12.90;99.90
19058;DHT22;9662;53.612;9.914;2022-09-27T02:48:39;12.70;99.90
19058;DHT22;9662;53.612;9.914;2022-09-27T02:54:05;12.90;99.90
19058;DHT22;9662;53.612;9.914;2022-09-27T02:56:42;13.00;99.90
19058;DHT22;9662;53.612;9.914;2022-09-27T02:59:16;13.00;99.90
19058;DHT22;9662;53.612;9.914;2022-09-27T03:01:50;12.90;99.90
19058;DHT22;9662;53.612;9.914;2022-09-27T03:04:28;12.70;99.90
19058;DHT22;9662;53.612;9.914;2022-09-27T03:06:59;13.00;99.90
19058;DHT22;9662;53.612;9.914;2022-09-27T03:09:29;13.10;99.90
19058;DHT22;9662;53.612;9.914;2022-09-27T03:11:55;13.00;99.90
19058;DHT22;9662;53.612;9.914;2022-09-27T03:14:22;12.90;99.90
19058;DHT22;9662;53.612;9.914;2022-09-27T03:16:49;13.00;99.90
19058;DHT22;9662;53.612;9.914;2022-09-27T03:19:16;13.10;99.90
19058;DHT22;9662;53.612;9.914;2022-09-27T03:21:44;13.10;99.90
19058;DHT22;9662;53.612;9.914;2022-09-27T03:24:11;13.10;99.90
19058;DHT22;9662;53.612;9.914;2022-09-27T03:26:38;13.10;99.90
19058;DHT22;9662;53.612;9.914;2022-09-27T03:29:05;13.20;99.90
19058;DHT22;9662;53.612;9.914;2022-09-27T03:31:31;13.10;99.90
19058;DHT22;9662;53.612;9.914;2022-09-27T03:33:58;13.10;99.90
19058;DHT22;9662;53.612;9.914;2022-09-27T03:36:25;13.10;99.90
19058;DHT22;9662;53.612;9.914;2022-09-27T03:38:53;12.90;99.90
19058;DHT22;9662;53.612;9.914;2022-09-27T03:41:20;12.80;99.90
19058;DHT22;9662;53.612;9.914;2022-09-27T03:43:47;13.00;99.90
19058;DHT22;9662;53.612;9.914;2022-09-27T03:46:14;12.90;99.90
19058;DHT22;9662;53.612;9.914;2022-09-27T03:48:41;13.00;99.90
19058;DHT22;9662;53.612;9.914;2022-09-27T03:51:08;13.10;99.90
19058;DHT22;9662;53.612;9.914;2022-09-27T03:53:36;13.00;99.90
19058;DHT22;9662;53.612;9.914;2022-09-27T03:56:05;13.00;99.90
19058;DHT22;9662;53.612;9.914;2022-09-27T03:58:32;13.00;99.90
19058;DHT22;9662;53.612;9.914;2022-09-27T04:00:59;12.90;99.90
19058;DHT22;9662;53.612;9.914;2022-09-27T04:03:26;13.10;99.90
19058;DHT22;9662;53.612;9.914;2022-09-27T04:05:52;13.10;99.90
19058;DHT22;9662;53.612;9.914;2022-09-27T04:08:20;13.10;99.90
19058;DHT22;9662;53.612;9.914;2022-09-27T04:10:47;13.20;99.90
19058;DHT22;9662;53.612;9.914;2022-09-27T04:13:15;13.20;99.90
19058;DHT22;9662;53.612;9.914;2022-09-27T04:15:42;13.10;99.90
19058;DHT22;9662;53.612;9.914;2022-09-27T04:18:09;13.10;99.90
19058;DHT22;9662;53.612;9.914;2022-09-27T04:20:36;13.20;99.90
19058;DHT22;9662;53.612;9.914;2022-09-27T04:23:04;13.10;99.90
19058;DHT22;9662;53.612;9.914;2022-09-27T04:25:31;13.20;99.90
19058;DHT22;9662;53.612;9.914;2022-09-27T04:27:58;13.20;99.90
19058;DHT22;9662;53.612;9.914;2022-09-27T04:30:27;13.20;99.90
19058;DHT22;9662;53.612;9.914;2022-09-27T04:32:54;13.20;99.90
19058;DHT22;9662;53.612;9.914;2022-09-27T04:35:21;13.10;99.90
19058;DHT22;9662;53.612;9.914;2022-09-27T04:38:05;13.20;99.90
19058;DHT22;9662;53.612;9.914;2022-09-27T04:40:33;13.00;99.90
19058;DHT22;9662;53.612;9.914;2022-09-27T04:43:00;13.20;99.90
19058;DHT22;9662;53.612;9.914;2022-09-27T04:45:30;13.20;99.90
19058;DHT22;9662;53.612;9.914;2022-09-27T04:47:57;13.30;99.90
19058;DHT22;9662;53.612;9.914;2022-09-27T04:50:24;13.30;99.90
19058;DHT22;9662;53.612;9.914;2022-09-27T04:52:51;13.30;99.90
19058;DHT22;9662;53.612;9.914;2022-09-27T04:55:18;13.20;99.90
19058;DHT22;9662;53.612;9.914;2022-09-27T04:57:45;13.30;99.90
19058;DHT22;9662;53.612;9.914;2022-09-27T05:00:13;13.20;99.90
19058;DHT22;9662;53.612;9.914;2022-09-27T05:02:42;13.30;99.90
19058;DHT22;9662;53.612;9.914;2022-09-27T05:05:09;13.40;99.90
19058;DHT22;9662;53.612;9.914;2022-09-27T05:07:37;13.40;99.90
19058;DHT22;9662;53.612;9.914;2022-09-27T05:10:05;13.30;99.90
19058;DHT22;9662;53.612;9.914;2022-09-27T05:12:32;13.20;99.90
19058;DHT22;9662;53.612;9.914;2022-09-27T05:14:59;13.30;99.90
19058;DHT22;9662;53.612;9.914;2022-09-27T05:17:26;13.30;99.90
19058;DHT22;9662;53.612;9.914;2022-09-27T05:19:54;13.30;99.90
19058;DHT22;9662;53.612;9.914;2022-09-27T05:22:21;13.30;99.90
19058;DHT22;9662;53.612;9.914;2022-09-27T05:24:48;13.40;99.90
19058;DHT22;9662;53.612;9.914;2022-09-27T05:27:15;13.40;99.90
19058;DHT22;9662;53.612;9.914;2022-09-27T05:29:45;13.50;99.90
19058;DHT22;9662;53.612;9.914;2022-09-27T05:32:12;13.40;99.90
19058;DHT22;9662;53.612;9.914;2022-09-27T05:34:39;13.50;99.90
19058;DHT22;9662;53.612;9.914;2022-09-27T05:37:07;13.40;99.90
19058;DHT22;9662;53.612;9.914;2022-09-27T05:39:34;13.30;99.90
19058;DHT22;9662;53.612;9.914;2022-09-27T05:42:01;13.40;99.90
19058;DHT22;9662;53.612;9.914;2022-09-27T05:44:29;13.40;99.90
19058;DHT22;9662;53.612;9.914;2022-09-27T05:46:56;13.50;99.90
19058;DHT22;9662;53.612;9.914;2022-09-27T05:49:26;13.40;99.90
19058;DHT22;9662;53.612;9.914;2022-09-27T05:51:53;13.50;99.90
19058;DHT22;9662;53.612;9.914;2022-09-27T05:54:21;13.50;99.90
19058;DHT22;9662;53.612;9.914;2022-09-27T05:56:48;13.60;99.90
19058;DHT22;9662;53.612;9.914;2022-09-27T05:59:15;13.50;99.90
19058;DHT22;9662;53.612;9.914;2022-09-27T06:01:42;13.40;99.90
19058;DHT22;9662;53.612;9.914;2022-09-27T06:04:09;13.40;99.90
19058;DHT22;9662;53.612;9.914;2022-09-27T06:06:36;13.40;99.90
19058;DHT22;9662;53.612;9.914;2022-09-27T06:09:03;13.50;99.90
19058;DHT22;9662;53.612;9.914;2022-09-27T06:11:31;13.50;99.90
19058;DHT22;9662;53.612;9.914;2022-09-27T06:13:58;13.30;99.90
19058;DHT22;9662;53.612;9.914;2022-09-27T06:16:24;13.40;99.90
19058;DHT22;9662;53.612;9.914;2022-09-27T06:18:51;13.50;99.90
19058;DHT22;9662;53.612;9.914;2022-09-27T06:21:18;13.40;99.90
19058;DHT22;9662;53.612;9.914;2022-09-27T06:23:45;13.50;99.90
19058;DHT22;9662;53.612;9.914;2022-09-27T06:26:12;13.20;99.90
19058;DHT22;9662;53.612;9.914;2022-09-27T06:28:40;13.30;99.90
19058;DHT22;9662;53.612;9.914;2022-09-27T06:31:07;13.20;99.90
19058;DHT22;9662;53.612;9.914;2022-09-27T06:33:36;13.20;99.90
19058;DHT22;9662;53.612;9.914;2022-09-27T06:36:03;13.10;99.90
19058;DHT22;9662;53.612;9.914;2022-09-27T06:38:31;13.20;99.90
19058;DHT22;9662;53.612;9.914;2022-09-27T06:41:00;13.30;99.90
19058;DHT22;9662;53.612;9.914;2022-09-27T06:43:27;13.40;99.90
19058;DHT22;9662;53.612;9.914;2022-09-27T06:45:58;13.40;99.90
19058;DHT22;9662;53.612;9.914;2022-09-27T06:48:27;13.30;99.90
19058;DHT22;9662;53.612;9.914;2022-09-27T06:50:54;13.40;99.90
19058;DHT22;9662;53.612;9.914;2022-09-27T06:53:23;13.40;99.90
19058;DHT22;9662;53.612;9.914;2022-09-27T06:55:50;13.30;99.90
19058;DHT22;9662;53.612;9.914;2022-09-27T06:58:17;13.00;99.90
19058;DHT22;9662;53.612;9.914;2022-09-27T07:01:03;13.00;99.90
19058;DHT22;9662;53.612;9.914;2022-09-27T07:03:30;13.10;99.90
19058;DHT22;9662;53.612;9.914;2022-09-27T07:05:59;12.90;99.90
19058;DHT22;9662;53.612;9.914;2022-09-27T07:08:27;12.90;99.90
19058;DHT22;9662;53.612;9.914;2022-09-27T07:10:55;12.90;99.90
19058;DHT22;9662;53.612;9.914;2022-09-27T07:13:22;12.90;99.90
19058;DHT22;9662;53.612;9.914;2022-09-27T07:15:49;12.80;99.90
19058;DHT22;9662;53.612;9.914;2022-09-27T07:18:17;12.90;99.90
19058;DHT22;9662;53.612;9.914;2022-09-27T07:20:45;12.90;99.90
19058;DHT22;9662;53.612;9.914;2022-09-27T07:23:13;13.00;99.90
19058;DHT22;9662;53.612;9.914;2022-09-27T07:25:39;13.10;99.90
19058;DHT22;9662;53.612;9.914;2022-09-27T07:28:11;13.20;99.90
19058;DHT22;9662;53.612;9.914;2022-09-27T07:30:39;13.20;99.90
19058;DHT22;9662;53.612;9.914;2022-09-27T07:33:07;13.20;99.90
19058;DHT22;9662;53.612;9.914;2022-09-27T07:35:38;13.40;99.90
19058;DHT22;9662;53.612;9.914;2022-09-27T07:38:06;13.50;99.90
19058;DHT22;9662;53.612;9.914;2022-09-27T07:40:35;13.50;99.90
19058;DHT22;9662;53.612;9.914;2022-09-27T07:43:03;13.50;99.90
19058;DHT22;9662;53.612;9.914;2022-09-27T07:45:30;13.40;99.90
19058;DHT22;9662;53.612;9.914;2022-09-27T07:47:57;13.60;99.90
19058;DHT22;9662;53.612;9.914;2022-09-27T07:50:24;13.60;99.90
19058;DHT22;9662;53.612;9.914;2022-09-27T07:52:54;13.70;99.90
19058;DHT22;9662;53.612;9.914;2022-09-27T07:55:21;13.80;99.90
19058;DHT22;9662;53.612;9.914;2022-09-27T07:57:49;13.90;99.90
19058;DHT22;9662;53.612;9.914;2022-09-27T08:00:17;13.90;99.90
19058;DHT22;9662;53.612;9.914;2022-09-27T08:02:45;13.90;99.90
19058;DHT22;9662;53.612;9.914;2022-09-27T08:05:12;13.90;99.90
19058;DHT22;9662;53.612;9.914;2022-09-27T08:07:40;14.10;99.90
19058;DHT22;9662;53.612;9.914;2022-09-27T08:10:08;14.20;99.90
19058;DHT22;9662;53.612;9.914;2022-09-27T08:12:35;14.40;99.90
19058;DHT22;9662;53.612;9.914;2022-09-27T08:15:03;14.50;99.90
19058;DHT22;9662;53.612;9.914;2022-09-27T08:17:30;14.60;99.90
19058;DHT22;9662;53.612;9.914;2022-09-27T08:19:57;14.50;99.90
19058;DHT22;9662;53.612;9.914;2022-09-27T08:22:26;14.60;99.90
19058;DHT22;9662;53.612;9.914;2022-09-27T08:24:53;14.70;99.90
19058;DHT22;9662;53.612;9.914;2022-09-27T08:27:21;14.80;99.90
19058;DHT22;9662;53.612;9.914;2022-09-27T08:29:48;14.60;99.90
19058;DHT22;9662;53.612;9.914;2022-09-27T08:32:15;14.70;99.90
19058;DHT22;9662;53.612;9.914;2022-09-27T08:34:43;14.60;99.90
19058;DHT22;9662;53.612;9.914;2022-09-27T08:37:10;14.40;99.90
19058;DHT22;9662;53.612;9.914;2022-09-27T08:39:37;14.20;99.90
19058;DHT22;9662;53.612;9.914;2022-09-27T08:42:13;14.40;99.90
19058;DHT22;9662;53.612;9.914;2022-09-27T08:44:49;14.10;99.90
19058;DHT22;9662;53.612;9.914;2022-09-27T08:47:24;14.20;99.90
19058;DHT22;9662;53.612;9.914;2022-09-27T08:49:53;14.20;99.90
19058;DHT22;9662;53.612;9.914;2022-09-27T08:52:25;14.00;99.90
19058;DHT22;9662;53.612;9.914;2022-09-27T08:54:55;14.10;99.90
19058;DHT22;9662;53.612;9.914;2022-09-27T08:57:23;13.80;99.90
19058;DHT22;9662;53.612;9.914;2022-09-27T08:59:59;13.40;99.90
19058;DHT22;9662;53.612;9.914;2022-09-27T09:02:27;13.40;99.90
19058;DHT22;9662;53.612;9.914;2022-09-27T09:04:56;13.30;99.90
19058;DHT22;9662;53.612;9.914;2022-09-27T09:10:29;13.30;99.90
19058;DHT22;9662;53.612;9.914;2022-09-27T09:13:26;13.30;99.90
19058;DHT22;9662;53.612;9.914;2022-09-27T09:16:06;13.10;99.90
19058;DHT22;9662;53.612;9.914;2022-09-27T09:18:48;13.00;99.90
19058;DHT22;9662;53.612;9.914;2022-09-27T09:21:25;13.20;99.90
19058;DHT22;9662;53.612;9.914;2022-09-27T09:24:11;13.40;99.90
19058;DHT22;9662;53.612;9.914;2022-09-27T09:26:51;13.30;99.90
19058;DHT22;9662;53.612;9.914;2022-09-27T09:29:35;13.40;99.90
19058;DHT22;9662;53.612;9.914;2022-09-27T09:32:17;13.20;99.90
19058;DHT22;9662;53.612;9.914;2022-09-27T09:34:47;13.30;99.90
19058;DHT22;9662;53.612;9.914;2022-09-27T09:37:19;13.40;99.90
19058;DHT22;9662;53.612;9.914;2022-09-27T09:39:51;13.30;99.90
19058;DHT22;9662;53.612;9.914;2022-09-27T09:42:25;13.10;99.90
19058;DHT22;9662;53.612;9.914;2022-09-27T09:45:00;13.20;99.90
19058;DHT22;9662;53.612;9.914;2022-09-27T09:47:34;13.30;99.90
19058;DHT22;9662;53.612;9.914;2022-09-27T09:50:05;13.20;99.90
19058;DHT22;9662;53.612;9.914;2022-09-27T09:52:43;13.20;99.90
19058;DHT22;9662;53.612;9.914;2022-09-27T09:55:18;13.20;99.90
19058;DHT22;9662;53.612;9.914;2022-09-27T09:57:53;13.40;99.90
19058;DHT22;9662;53.612;9.914;2022-09-27T10:00:21;13.40;99.90
19058;DHT22;9662;53.612;9.914;2022-09-27T10:02:52;13.40;99.90
19058;DHT22;9662;53.612;9.914;2022-09-27T10:05:22;13.50;99.90
19058;DHT22;9662;53.612;9.914;2022-09-27T10:07:51;13.40;99.90
19058;DHT22;9662;53.612;9.914;2022-09-27T10:10:20;13.50;99.90
19058;DHT22;9662;53.612;9.914;2022-09-27T10:12:48;13.60;99.90
19058;DHT22;9662;53.612;9.914;2022-09-27T10:15:17;13.40;99.90
19058;DHT22;9662;53.612;9.914;2022-09-27T10:17:47;13.30;99.90
19058;DHT22;9662;53.612;9.914;2022-09-27T10:20:27;13.30;99.90
19058;DHT22;9662;53.612;9.914;2022-09-27T10:23:00;13.30;99.90
19058;DHT22;9662;53.612;9.914;2022-09-27T10:25:45;13.50;99.90
19058;DHT22;9662;53.612;9.914;2022-09-27T10:28:30;13.40;99.90
19058;DHT22;9662;53.612;9.914;2022-09-27T10:31:00;13.40;99.90
19058;DHT22;9662;53.612;9.914;2022-09-27T10:33:28;13.70;99.90
19058;DHT22;9662;53.612;9.914;2022-09-27T10:35:58;13.80;99.90
19058;DHT22;9662;53.612;9.914;2022-09-27T10:38:28;14.00;99.90
19058;DHT22;9662;53.612;9.914;2022-09-27T10:40:56;14.00;99.90
19058;DHT22;9662;53.612;9.914;2022-09-27T10:43:29;14.30;99.90
19058;DHT22;9662;53.612;9.914;2022-09-27T10:46:08;14.20;99.90
19058;DHT22;9662;53.612;9.914;2022-09-27T10:48:36;14.30;99.90
19058;DHT22;9662;53.612;9.914;2022-09-27T10:51:21;14.40;99.90
19058;DHT22;9662;53.612;9.914;2022-09-27T10:53:49;14.20;99.90
19058;DHT22;9662;53.612;9.914;2022-09-27T10:56:21;14.40;99.90
19058;DHT22;9662;53.612;9.914;2022-09-27T10:58:48;14.60;99.90
19058;DHT22;9662;53.612;9.914;2022-09-27T11:01:16;14.70;99.90
19058;DHT22;9662;53.612;9.914;2022-09-27T11:03:47;14.80;99.90
19058;DHT22;9662;53.612;9.914;2022-09-27T11:06:25;14.60;99.90
19058;DHT22;9662;53.612;9.914;2022-09-27T11:08:54;14.50;99.90
19058;DHT22;9662;53.612;9.914;2022-09-27T11:11:24;14.50;99.90
19058;DHT22;9662;53.612;9.914;2022-09-27T11:13:58;14.70;99.90
19058;DHT22;9662;53.612;9.914;2022-09-27T11:16:41;14.60;99.90
19058;DHT22;9662;53.612;9.914;2022-09-27T11:19:35;14.80;99.90
19058;DHT22;9662;53.612;9.914;2022-09-27T11:22:21;14.70;99.90
19058;DHT22;9662;53.612;9.914;2022-09-27T11:25:06;14.80;99.90
19058;DHT22;9662;53.612;9.914;2022-09-27T11:27:45;15.00;99.90
19058;DHT22;9662;53.612;9.914;2022-09-27T11:30:19;15.00;99.90
19058;DHT22;9662;53.612;9.914;2022-09-27T11:32:58;15.10;99.90
19058;DHT22;9662;53.612;9.914;2022-09-27T11:35:44;14.80;99.90
19058;DHT22;9662;53.612;9.914;2022-09-27T11:38:22;14.80;99.90
19058;DHT22;9662;53.612;9.914;2022-09-27T11:41:10;15.10;99.90
19058;DHT22;9662;53.612;9.914;2022-09-27T11:44:03;15.20;99.90
19058;DHT22;9662;53.612;9.914;2022-09-27T11:46:36;15.10;99.90
19058;DHT22;9662;53.612;9.914;2022-09-27T11:49:35;15.30;99.90
19058;DHT22;9662;53.612;9.914;2022-09-27T11:55:18;14.90;99.90
19058;DHT22;9662;53.612;9.914;2022-09-27T11:57:49;15.20;99.90
19058;DHT22;9662;53.612;9.914;2022-09-27T12:00:19;14.90;99.90
19058;DHT22;9662;53.612;9.914;2022-09-27T12:03:30;14.90;99.90
19058;DHT22;9662;53.612;9.914;2022-09-27T12:06:08;15.10;99.90
19058;DHT22;9662;53.612;9.914;2022-09-27T12:08:55;15.20;99.90
19058;DHT22;9662;53.612;9.914;2022-09-27T12:11:28;15.10;99.90
19058;DHT22;9662;53.612;9.914;2022-09-27T12:13:57;15.10;99.90
19058;DHT22;9662;53.612;9.914;2022-09-27T12:16:26;15.20;99.90
19058;DHT22;9662;53.612;9.914;2022-09-27T12:18:54;15.50;99.90
19058;DHT22;9662;53.612;9.914;2022-09-27T12:21:22;15.30;99.90
19058;DHT22;9662;53.612;9.914;2022-09-27T12:23:52;15.50;99.90
19058;DHT22;9662;53.612;9.914;2022-09-27T12:26:26;15.50;99.90
19058;DHT22;9662;53.612;9.914;2022-09-27T12:28:58;15.60;99.90
19058;DHT22;9662;53.612;9.914;2022-09-27T12:31:30;15.30;99.90
19058;DHT22;9662;53.612;9.914;2022-09-27T12:34:10;15.30;99.90
19058;DHT22;9662;53.612;9.914;2022-09-27T12:36:42;15.40;99.90
19058;DHT22;9662;53.612;9.914;2022-09-27T12:39:16;15.30;99.90
19058;DHT22;9662;53.612;9.914;2022-09-27T12:41:48;15.40;99.90
19058;DHT22;9662;53.612;9.914;2022-09-27T12:44:16;15.20;99.90
19058;DHT22;9662;53.612;9.914;2022-09-27T12:46:52;15.40;99.90
19058;DHT22;9662;53.612;9.914;2022-09-27T12:49:28;15.20;99.90
19058;DHT22;9662;53.612;9.914;2022-09-27T12:52:00;15.40;99.90
19058;DHT22;9662;53.612;9.914;2022-09-27T12:57:45;15.10;99.90
19058;DHT22;9662;53.612;9.914;2022-09-27T13:00:18;15.40;99.90
19058;DHT22;9662;53.612;9.914;2022-09-27T13:03:01;15.40;99.90
19058;DHT22;9662;53.612;9.914;2022-09-27T13:08:55;15.20;99.90
19058;DHT22;9662;53.612;9.914;2022-09-27T13:11:29;15.30;99.90
19058;DHT22;9662;53.612;9.914;2022-09-27T13:14:04;15.30;99.90
19058;DHT22;9662;53.612;9.914;2022-09-27T13:16:41;15.50;99.90
19058;DHT22;9662;53.612;9.914;2022-09-27T13:19:36;15.40;99.90
19058;DHT22;9662;53.612;9.914;2022-09-27T13:22:03;15.40;99.90
19058;DHT22;9662;53.612;9.914;2022-09-27T13:24:46;15.10;99.90
19058;DHT22;9662;53.612;9.914;2022-09-27T13:27:35;14.80;99.90
19058;DHT22;9662;53.612;9.914;2022-09-27T13:33:38;15.00;99.90
19058;DHT22;9662;53.612;9.914;2022-09-27T13:36:17;15.30;99.90
19058;DHT22;9662;53.612;9.914;2022-09-27T13:38:55;15.30;99.90
19058;DHT22;9662;53.612;9.914;2022-09-27T13:41:27;15.30;99.90
19058;DHT22;9662;53.612;9.914;2022-09-27T13:44:02;15.40;99.90
19058;DHT22;9662;53.612;9.914;2022-09-27T13:46:33;15.50;99.90
19058;DHT22;9662;53.612;9.914;2022-09-27T13:49:04;15.70;99.90
19058;DHT22;9662;53.612;9.914;2022-09-27T13:51:43;15.40;99.90
19058;DHT22;9662;53.612;9.914;2022-09-27T13:54:39;15.20;99.90
19058;DHT22;9662;53.612;9.914;2022-09-27T13:57:40;15.40;99.90
19058;DHT22;9662;53.612;9.914;2022-09-27T14:00:11;15.30;99.90
19058;DHT22;9662;53.612;9.914;2022-09-27T14:02:42;15.00;99.90
19058;DHT22;9662;53.612;9.914;2022-09-27T14:05:19;14.70;99.90
19058;DHT22;9662;53.612;9.914;2022-09-27T14:07:49;14.90;99.90
19058;DHT22;9662;53.612;9.914;2022-09-27T14:10:19;14.80;99.90
19058;DHT22;9662;53.612;9.914;2022-09-27T14:12:48;14.70;99.90
19058;DHT22;9662;53.612;9.914;2022-09-27T14:15:18;14.60;99.90
19058;DHT22;9662;53.612;9.914;2022-09-27T14:17:46;14.60;99.90
19058;DHT22;9662;53.612;9.914;2022-09-27T14:20:33;14.70;99.90
19058;DHT22;9662;53.612;9.914;2022-09-27T14:23:01;14.60;99.90
19058;DHT22;9662;53.612;9.914;2022-09-27T14:25:28;14.50;99.90
19058;DHT22;9662;53.612;9.914;2022-09-27T14:27:55;14.60;99.90
19058;DHT22;9662;53.612;9.914;2022-09-27T14:30:24;14.60;99.90
19058;DHT22;9662;53.612;9.914;2022-09-27T14:32:53;14.50;99.90
19058;DHT22;9662;53.612;9.914;2022-09-27T14:35:24;14.50;99.90
19058;DHT22;9662;53.612;9.914;2022-09-27T14:38:12;14.40;99.90
19058;DHT22;9662;53.612;9.914;2022-09-27T14:40:40;14.40;99.90
19058;DHT22;9662;53.612;9.914;2022-09-27T14:43:14;14.40;99.90
19058;DHT22;9662;53.612;9.914;2022-09-27T14:45:41;14.50;99.90
19058;DHT22;9662;53.612;9.914;2022-09-27T14:48:19;14.40;99.90
19058;DHT22;9662;53.612;9.914;2022-09-27T14:50:54;14.40;99.90
19058;DHT22;9662;53.612;9.914;2022-09-27T14:53:28;14.40;99.90
19058;DHT22;9662;53.612;9.914;2022-09-27T14:55:55;14.40;99.90
19058;DHT22;9662;53.612;9.914;2022-09-27T14:58:23;14.70;99.90
19058;DHT22;9662;53.612;9.914;2022-09-27T15:00:51;14.60;99.90
19058;DHT22;9662;53.612;9.914;2022-09-27T15:03:21;14.80;99.90
19058;DHT22;9662;53.612;9.914;2022-09-27T15:05:51;14.60;99.90
19058;DHT22;9662;53.612;9.914;2022-09-27T15:08:21;14.50;99.90
19058;DHT22;9662;53.612;9.914;2022-09-27T15:10:50;14.80;99.90
19058;DHT22;9662;53.612;9.914;2022-09-27T15:13:18;14.70;99.90
19058;DHT22;9662;53.612;9.914;2022-09-27T15:15:46;14.80;99.90
19058;DHT22;9662;53.612;9.914;2022-09-27T15:18:31;14.80;99.90
19058;DHT22;9662;53.612;9.914;2022-09-27T15:20:59;14.80;99.90
19058;DHT22;9662;53.612;9.914;2022-09-27T15:23:27;14.70;99.90
19058;DHT22;9662;53.612;9.914;2022-09-27T15:26:03;14.90;99.90
19058;DHT22;9662;53.612;9.914;2022-09-27T15:28:31;14.60;99.90
19058;DHT22;9662;53.612;9.914;2022-09-27T15:31:03;14.40;99.90
19058;DHT22;9662;53.612;9.914;2022-09-27T15:33:32;14.50;99.90
19058;DHT22;9662;53.612;9.914;2022-09-27T15:36:02;14.40;99.90
19058;DHT22;9662;53.612;9.914;2022-09-27T15:38:30;14.20;99.90
19058;DHT22;9662;53.612;9.914;2022-09-27T15:41:17;14.30;99.90
19058;DHT22;9662;53.612;9.914;2022-09-27T15:43:46;14.40;99.90
19058;DHT22;9662;53.612;9.914;2022-09-27T15:46:28;14.30;99.90
19058;DHT22;9662;53.612;9.914;2022-09-27T15:49:21;14.30;99.90
19058;DHT22;9662;53.612;9.914;2022-09-27T15:51:49;14.30;99.90
19058;DHT22;9662;53.612;9.914;2022-09-27T15:54:19;14.20;99.90
19058;DHT22;9662;53.612;9.914;2022-09-27T15:56:48;14.00;99.90
19058;DHT22;9662;53.612;9.914;2022-09-27T15:59:19;13.70;99.90
19058;DHT22;9662;53.612;9.914;2022-09-27T16:01:46;13.80;99.90
19058;DHT22;9662;53.612;9.914;2022-09-27T16:04:13;13.50;99.90
19058;DHT22;9662;53.612;9.914;2022-09-27T16:06:40;13.60;99.90
19058;DHT22;9662;53.612;9.914;2022-09-27T16:09:13;13.80;99.90
19058;DHT22;9662;53.612;9.914;2022-09-27T16:11:42;14.00;99.90
19058;DHT22;9662;53.612;9.914;2022-09-27T16:14:10;14.10;99.90
19058;DHT22;9662;53.612;9.914;2022-09-27T16:16:41;14.00;99.90
19058;DHT22;9662;53.612;9.914;2022-09-27T16:19:08;14.20;99.90
19058;DHT22;9662;53.612;9.914;2022-09-27T16:21:35;14.20;99.90
19058;DHT22;9662;53.612;9.914;2022-09-27T16:24:02;14.30;99.90
19058;DHT22;9662;53.612;9.914;2022-09-27T16:26:29;14.10;99.90
19058;DHT22;9662;53.612;9.914;2022-09-27T16:28:55;14.00;99.90
19058;DHT22;9662;53.612;9.914;2022-09-27T16:31:25;14.00;99.90